Time;durP1;ratioP1;P1;durP2;ratioP2;P2;SDS_P1;SDS_P2;PMS_P1;PMS_P2;Temp;Humidity;BMP_temperature;BMP_pressure;BME280_temperature;BME280_humidity;BME280_pressure;Samples;Min_cycle;Max_cycle;Signal;HPM_P1;HPM_P2
2024/02/21 00:01:50;;;;;;;10.50;4.95;;;12.20;58.70;;;;;;5052687;28;20044;-75
2024/02/21 00:04:16;;;;;;;8.77;5.28;;;12.30;58.80;;;;;;5052987;28;20044;-72
2024/02/21 00:06:42;;;;;;;9.75;5.07;;;12.30;58.90;;;;;;5052906;28;20033;-74
2024/02/21 00:09:09;;;;;;;9.43;5.15;;;12.20;58.80;;;;;;5052774;28;20017;-74
2024/02/21 00:11:35;;;;;;;7.75;4.90;;;12.20;59.00;;;;;;5052587;28;20033;-73
2024/02/21 00:14:01;;;;;;;20.70;5.80;;;12.20;59.00;;;;;;5052261;28;20442;-74
2024/02/21 00:16:26;;;;;;;10.10;5.47;;;12.20;59.70;;;;;;5052441;28;20496;-73
2024/02/21 00:18:52;;;;;;;15.57;5.15;;;12.20;59.30;;;;;;5052228;28;20035;-73
2024/02/21 00:21:18;;;;;;;11.15;5.40;;;12.20;59.40;;;;;;5052237;28;20025;-72
2024/02/21 00:23:46;;;;;;;9.60;5.57;;;12.20;59.50;;;;;;5052325;28;20025;-74
2024/02/21 00:26:16;;;;;;;8.20;5.55;;;12.10;59.50;;;;;;5052248;28;20086;-73
2024/02/21 00:28:41;;;;;;;9.63;5.97;;;12.10;59.60;;;;;;5052404;28;20025;-74
2024/02/21 00:31:07;;;;;;;9.82;6.13;;;12.00;59.50;;;;;;5052128;28;20547;-74
2024/02/21 00:33:33;;;;;;;11.88;6.60;;;12.00;59.50;;;;;;5051873;28;20051;-74
2024/02/21 00:35:58;;;;;;;11.23;6.82;;;11.90;59.50;;;;;;5052219;28;20021;-73
2024/02/21 00:38:24;;;;;;;20.05;6.38;;;11.90;59.60;;;;;;5052250;28;20461;-73
2024/02/21 00:40:50;;;;;;;10.75;6.40;;;11.80;59.60;;;;;;5052276;28;20067;-74
2024/02/21 00:43:15;;;;;;;9.27;6.18;;;11.80;59.70;;;;;;5052183;28;20523;-73
2024/02/21 00:45:41;;;;;;;10.52;6.40;;;11.70;59.70;;;;;;5051960;28;20025;-73
2024/02/21 00:48:07;;;;;;;10.80;6.22;;;11.70;59.80;;;;;;5051966;28;20322;-73
2024/02/21 00:50:33;;;;;;;10.20;6.47;;;11.70;59.90;;;;;;5052050;28;20029;-73
2024/02/21 00:52:59;;;;;;;9.93;6.22;;;11.70;59.80;;;;;;5051919;28;20018;-73
2024/02/21 00:55:24;;;;;;;10.75;6.30;;;11.60;59.90;;;;;;5052029;28;20025;-74
2024/02/21 00:57:50;;;;;;;9.98;6.03;;;11.70;60.00;;;;;;5051871;28;20078;-73
2024/02/21 01:00:16;;;;;;;9.27;5.90;;;11.70;60.10;;;;;;5052092;28;20032;-74
2024/02/21 01:02:42;;;;;;;11.30;6.45;;;11.70;60.10;;;;;;5051757;28;20021;-73
2024/02/21 01:05:07;;;;;;;13.45;9.85;;;11.60;60.00;;;;;;5052041;28;20583;-74
2024/02/21 01:07:33;;;;;;;23.77;18.08;;;11.70;60.60;;;;;;5051777;28;20025;-73
2024/02/21 01:09:59;;;;;;;28.33;20.95;;;11.70;60.10;;;;;;5051995;28;20079;-72
2024/02/21 01:12:25;;;;;;;37.15;25.17;;;11.70;60.10;;;;;;5052035;28;20029;-73
2024/02/21 01:14:50;;;;;;;36.05;26.15;;;11.60;60.00;;;;;;5051833;28;20092;-75
2024/02/21 01:17:16;;;;;;;46.58;29.02;;;11.60;60.00;;;;;;5051582;28;20037;-73
2024/02/21 01:19:42;;;;;;;62.97;38.95;;;11.70;60.00;;;;;;5052037;28;20365;-73
2024/02/21 01:22:07;;;;;;;74.65;46.72;;;11.70;60.00;;;;;;5051785;28;20032;-74
2024/02/21 01:24:33;;;;;;;95.82;58.85;;;11.70;60.00;;;;;;5052249;28;20047;-75
2024/02/21 01:26:59;;;;;;;129.27;73.32;;;11.70;59.80;;;;;;5051582;28;20036;-73
2024/02/21 01:29:25;;;;;;;90.63;51.47;;;11.70;59.80;;;;;;5051964;28;20025;-72
2024/02/21 01:31:50;;;;;;;70.53;37.35;;;11.70;59.80;;;;;;5051397;28;20075;-73
2024/02/21 01:34:16;;;;;;;30.95;19.17;;;11.60;59.60;;;;;;5051850;28;20024;-73
2024/02/21 01:36:42;;;;;;;21.67;12.65;;;11.60;59.70;;;;;;5051553;28;20044;-72
2024/02/21 01:39:07;;;;;;;14.45;9.93;;;11.60;59.70;;;;;;5051714;28;20074;-73
2024/02/21 01:41:33;;;;;;;16.15;7.82;;;11.60;59.80;;;;;;5051654;28;20116;-73
2024/02/21 01:43:59;;;;;;;10.98;6.75;;;11.50;59.80;;;;;;5052659;28;20025;-74
2024/02/21 01:46:29;;;;;;;9.75;6.15;;;11.50;59.70;;;;;;5055297;28;20025;-73
2024/02/21 01:48:56;;;;;;;8.63;5.72;;;11.50;59.80;;;;;;5055385;28;20025;-74
2024/02/21 01:51:22;;;;;;;8.07;5.07;;;11.50;59.90;;;;;;5055119;28;20106;-73
2024/02/21 01:53:51;;;;;;;8.90;5.32;;;11.50;60.00;;;;;;5055217;28;20516;-73
2024/02/21 01:56:17;;;;;;;7.93;4.90;;;11.50;60.00;;;;;;5054896;28;20084;-72
2024/02/21 01:58:44;;;;;;;9.13;4.97;;;11.40;60.00;;;;;;5055125;28;20021;-73
2024/02/21 02:01:10;;;;;;;7.43;4.40;;;11.40;60.20;;;;;;5054908;28;20029;-73
2024/02/21 02:03:37;;;;;;;7.93;4.38;;;11.40;60.30;;;;;;5054966;28;20079;-73
2024/02/21 02:06:04;;;;;;;7.13;4.57;;;11.30;60.40;;;;;;5054850;28;20028;-73
2024/02/21 02:08:31;;;;;;;6.90;4.00;;;11.30;61.00;;;;;;5054960;28;20033;-73
2024/02/21 02:10:57;;;;;;;7.55;4.28;;;11.20;61.00;;;;;;5054807;28;20025;-72
2024/02/21 02:13:23;;;;;;;10.57;4.80;;;11.10;61.40;;;;;;5054793;28;20463;-72
2024/02/21 02:15:50;;;;;;;7.47;4.50;;;11.10;61.70;;;;;;5054517;28;20105;-72
2024/02/21 02:18:17;;;;;;;6.82;4.20;;;11.10;61.90;;;;;;5054804;28;20253;-73
2024/02/21 02:20:47;;;;;;;6.78;3.78;;;11.10;61.80;;;;;;5054646;28;20021;-73
2024/02/21 02:23:18;;;;;;;6.85;4.18;;;11.10;61.80;;;;;;5054653;28;20021;-73
2024/02/21 02:25:48;;;;;;;5.47;3.60;;;11.00;61.90;;;;;;5054496;28;20052;-72
2024/02/21 02:28:15;;;;;;;6.85;3.83;;;11.00;61.90;;;;;;5054346;28;20021;-74
2024/02/21 02:30:40;;;;;;;5.25;3.28;;;11.00;62.10;;;;;;5054187;28;20500;-73
2024/02/21 02:33:06;;;;;;;6.18;3.90;;;10.90;62.10;;;;;;5054271;28;20025;-73
2024/02/21 02:35:32;;;;;;;6.07;3.90;;;10.90;62.10;;;;;;5054223;28;20073;-73
2024/02/21 02:37:58;;;;;;;5.80;3.25;;;10.90;62.30;;;;;;5054219;28;20048;-73
2024/02/21 02:40:24;;;;;;;5.70;3.30;;;10.90;62.30;;;;;;5054219;28;20376;-74
2024/02/21 02:42:50;;;;;;;5.63;3.40;;;10.90;62.30;;;;;;5054210;28;20110;-73
2024/02/21 02:45:17;;;;;;;8.27;3.40;;;10.90;62.30;;;;;;5054031;28;20035;-72
2024/02/21 02:47:45;;;;;;;5.75;3.40;;;10.80;62.30;;;;;;5054497;28;20033;-74
2024/02/21 02:50:11;;;;;;;5.65;3.25;;;10.90;62.00;;;;;;5054195;28;20111;-73
2024/02/21 02:52:38;;;;;;;6.43;3.28;;;10.90;62.10;;;;;;5054058;28;20043;-72
2024/02/21 02:55:05;;;;;;;5.88;3.38;;;10.90;62.20;;;;;;5053780;28;20448;-72
2024/02/21 02:57:30;;;;;;;5.55;3.13;;;10.90;62.00;;;;;;5053875;28;20487;-72
2024/02/21 02:59:56;;;;;;;7.72;3.20;;;10.90;61.80;;;;;;5053978;28;20017;-72
2024/02/21 03:02:22;;;;;;;5.97;3.22;;;10.80;61.80;;;;;;5053602;28;20039;-73
2024/02/21 03:04:48;;;;;;;5.30;3.17;;;10.80;61.70;;;;;;5053816;28;20358;-72
2024/02/21 03:07:15;;;;;;;7.32;3.15;;;10.80;61.90;;;;;;5053758;28;20027;-72
2024/02/21 03:09:42;;;;;;;5.28;2.85;;;10.80;61.80;;;;;;5053625;28;20388;-72
2024/02/21 03:12:08;;;;;;;5.68;2.92;;;10.80;61.90;;;;;;5054113;28;20028;-72
2024/02/21 03:14:34;;;;;;;6.57;3.17;;;10.80;61.80;;;;;;5053598;28;20025;-72
2024/02/21 03:17:00;;;;;;;4.72;2.83;;;10.80;61.80;;;;;;5053634;28;20029;-72
2024/02/21 03:19:26;;;;;;;4.68;2.80;;;10.80;61.80;;;;;;5053304;28;20021;-73
2024/02/21 03:21:52;;;;;;;6.25;3.13;;;10.80;61.80;;;;;;5053388;28;20021;-73
2024/02/21 03:24:19;;;;;;;5.60;2.97;;;10.80;61.90;;;;;;5053350;28;20033;-72
2024/02/21 03:26:47;;;;;;;5.13;2.90;;;10.80;61.90;;;;;;5053119;28;20053;-73
2024/02/21 03:29:14;;;;;;;5.03;3.30;;;10.80;61.90;;;;;;5053178;28;20029;-73
2024/02/21 03:31:40;;;;;;;6.53;3.28;;;10.80;61.80;;;;;;5053081;28;20045;-72
2024/02/21 03:34:05;;;;;;;5.00;2.92;;;10.70;61.90;;;;;;5053384;28;20027;-73
2024/02/21 03:36:31;;;;;;;6.05;2.85;;;10.70;62.00;;;;;;5053190;28;20116;-73
2024/02/21 03:38:57;;;;;;;6.95;3.83;;;10.70;62.20;;;;;;5052674;28;20036;-72
2024/02/21 03:41:22;;;;;;;6.35;3.53;;;10.70;62.30;;;;;;5053374;28;20080;-73
2024/02/21 03:43:48;;;;;;;6.90;3.65;;;10.60;62.20;;;;;;5053192;28;20032;-73
2024/02/21 03:46:15;;;;;;;7.07;3.05;;;10.60;62.40;;;;;;5053066;28;20032;-73
2024/02/21 03:48:41;;;;;;;6.47;3.53;;;10.70;62.70;;;;;;5053013;28;20112;-72
2024/02/21 03:51:07;;;;;;;5.38;3.15;;;10.70;62.80;;;;;;5052898;28;20538;-72
2024/02/21 03:53:32;;;;;;;6.55;3.10;;;10.70;62.80;;;;;;5052942;28;20074;-73
2024/02/21 03:56:03;;;;;;;6.75;3.38;;;10.70;62.70;;;;;;5052973;28;20028;-72
2024/02/21 03:58:32;;;;;;;5.95;3.05;;;10.60;62.70;;;;;;5053109;28;20021;-73
2024/02/21 04:01:01;;;;;;;6.03;3.75;;;10.60;63.20;;;;;;5052815;28;20017;-73
2024/02/21 04:03:27;;;;;;;5.70;3.47;;;10.60;63.00;;;;;;5052650;28;20103;-72
2024/02/21 04:05:53;;;;;;;6.57;3.10;;;10.60;63.10;;;;;;5052889;28;20025;-72
2024/02/21 04:08:18;;;;;;;5.55;3.40;;;10.60;63.20;;;;;;5052319;28;20499;-73
2024/02/21 04:10:44;;;;;;;6.75;3.65;;;10.50;63.40;;;;;;5052661;28;20487;-73
2024/02/21 04:13:10;;;;;;;7.30;3.35;;;10.50;63.50;;;;;;5052748;28;20057;-72
2024/02/21 04:15:36;;;;;;;7.43;3.50;;;10.40;63.60;;;;;;5052643;28;20035;-73
2024/02/21 04:18:02;;;;;;;6.03;3.38;;;10.40;63.80;;;;;;5052349;28;20370;-73
2024/02/21 04:20:29;;;;;;;6.20;3.65;;;10.40;63.90;;;;;;5052574;28;20107;-71
2024/02/21 04:22:55;;;;;;;7.38;3.97;;;10.30;63.90;;;;;;5051143;28;20362;-73
2024/02/21 04:25:21;;;;;;;8.10;3.90;;;10.40;64.00;;;;;;5052521;28;20074;-73
2024/02/21 04:27:46;;;;;;;6.43;4.20;;;10.30;64.00;;;;;;5052338;28;20025;-73
2024/02/21 04:30:12;;;;;;;6.07;4.00;;;10.20;64.00;;;;;;5052231;28;20104;-72
2024/02/21 04:32:39;;;;;;;6.10;3.83;;;10.20;64.10;;;;;;5052175;28;20031;-68
2024/02/21 04:35:05;;;;;;;6.10;3.40;;;10.20;64.00;;;;;;5052360;28;20052;-73
2024/02/21 04:37:31;;;;;;;6.85;3.95;;;10.20;64.00;;;;;;5052323;28;20071;-73
2024/02/21 04:39:57;;;;;;;6.75;3.75;;;10.20;64.10;;;;;;5052233;28;20079;-73
2024/02/21 04:42:22;;;;;;;5.85;3.42;;;10.20;64.10;;;;;;5052577;28;20036;-73
2024/02/21 04:44:48;;;;;;;5.63;3.03;;;10.20;64.00;;;;;;5052367;28;20029;-74
2024/02/21 04:47:14;;;;;;;5.55;3.47;;;10.20;63.90;;;;;;5052142;28;20065;-73
2024/02/21 04:49:40;;;;;;;7.13;3.22;;;10.10;63.60;;;;;;5052362;28;20029;-72
2024/02/21 04:52:05;;;;;;;4.93;2.95;;;10.00;63.20;;;;;;5052136;28;20031;-73
2024/02/21 04:54:31;;;;;;;5.30;2.90;;;10.00;63.10;;;;;;5052446;28;20094;-72
2024/02/21 04:56:57;;;;;;;5.55;2.88;;;10.00;63.10;;;;;;5051919;28;20036;-73
2024/02/21 04:59:22;;;;;;;5.47;2.83;;;9.90;63.80;;;;;;5051978;28;20029;-72
2024/02/21 05:01:48;;;;;;;11.35;3.25;;;9.90;63.80;;;;;;5052033;28;20029;-72
2024/02/21 05:04:14;;;;;;;5.13;2.70;;;9.80;63.70;;;;;;5051945;28;20031;-72
2024/02/21 05:06:41;;;;;;;5.65;2.63;;;9.80;63.70;;;;;;5052287;28;20025;-74
2024/02/21 05:09:10;;;;;;;6.78;3.70;;;9.80;63.80;;;;;;5051907;28;20075;-73
2024/02/21 05:11:37;;;;;;;5.57;2.95;;;9.90;63.90;;;;;;5051936;28;20100;-73
2024/02/21 05:14:03;;;;;;;5.82;3.25;;;9.90;64.00;;;;;;5051883;28;20480;-74
2024/02/21 05:16:30;;;;;;;6.35;3.42;;;9.90;64.10;;;;;;5051719;28;20049;-73
2024/02/21 05:18:57;;;;;;;5.30;2.95;;;9.90;63.90;;;;;;5052659;28;20430;-71
2024/02/21 05:21:25;;;;;;;7.30;3.13;;;9.90;64.00;;;;;;5055204;28;20087;-72
2024/02/21 05:23:51;;;;;;;5.70;3.17;;;9.80;64.00;;;;;;5054969;28;20100;-73
2024/02/21 05:26:24;;;;;;;6.57;2.97;;;9.80;64.00;;;;;;5055832;28;20532;-72
2024/02/21 05:28:50;;;;;;;5.80;2.72;;;9.80;64.10;;;;;;5055878;28;20017;-73
2024/02/21 05:31:20;;;;;;;6.70;3.13;;;9.80;64.20;;;;;;5055627;28;20071;-74
2024/02/21 05:33:46;;;;;;;6.53;2.85;;;9.70;64.10;;;;;;5055482;28;20017;-72
2024/02/21 05:36:14;;;;;;;7.63;2.88;;;9.80;64.20;;;;;;5055406;28;20450;-73
2024/02/21 05:38:40;;;;;;;6.25;3.15;;;9.70;64.20;;;;;;5055950;28;20104;-73
2024/02/21 05:41:06;;;;;;;4.57;2.75;;;9.70;64.20;;;;;;5055411;28;20105;-74
2024/02/21 05:43:32;;;;;;;9.45;3.08;;;9.70;64.20;;;;;;5055231;28;20484;-72
2024/02/21 05:45:58;;;;;;;5.55;3.17;;;9.70;64.20;;;;;;5055061;28;20029;-74
2024/02/21 05:48:24;;;;;;;5.28;2.83;;;9.70;64.40;;;;;;5055327;28;20082;-73
2024/02/21 05:50:50;;;;;;;5.15;2.95;;;9.70;64.30;;;;;;5055228;28;20492;-73
2024/02/21 05:53:15;;;;;;;6.75;3.30;;;9.70;64.20;;;;;;5055210;28;20025;-72
2024/02/21 05:55:41;;;;;;;6.00;2.92;;;9.70;64.40;;;;;;5055380;28;20028;-73
2024/02/21 05:58:09;;;;;;;5.93;3.22;;;9.60;64.30;;;;;;5054965;28;20041;-73
2024/02/21 06:00:36;;;;;;;7.45;3.15;;;9.60;64.40;;;;;;5054944;28;20428;-73
2024/02/21 06:03:02;;;;;;;5.75;2.95;;;9.60;64.40;;;;;;5055034;28;20041;-72
2024/02/21 06:05:28;;;;;;;7.28;3.33;;;9.60;64.50;;;;;;5055100;28;20087;-73
2024/02/21 06:07:53;;;;;;;5.78;3.20;;;9.50;64.50;;;;;;5055001;28;20115;-74
2024/02/21 06:10:19;;;;;;;5.95;3.38;;;9.50;64.50;;;;;;5054977;28;20017;-73
2024/02/21 06:12:45;;;;;;;5.38;2.83;;;9.60;64.70;;;;;;5055021;28;20029;-73
2024/02/21 06:15:10;;;;;;;5.03;2.83;;;9.70;64.50;;;;;;5054542;28;20072;-73
2024/02/21 06:17:36;;;;;;;8.23;3.60;;;9.70;64.50;;;;;;5054525;28;20540;-73
2024/02/21 06:20:02;;;;;;;5.75;3.22;;;9.60;64.40;;;;;;5054834;28;20021;-74
2024/02/21 06:22:27;;;;;;;7.50;4.00;;;9.60;64.40;;;;;;5055181;28;20513;-73
2024/02/21 06:24:54;;;;;;;7.43;3.80;;;9.70;64.50;;;;;;5053285;28;20032;-74
2024/02/21 06:27:20;;;;;;;6.38;3.63;;;9.70;64.50;;;;;;5054339;28;20028;-73
2024/02/21 06:29:45;;;;;;;7.47;3.38;;;9.80;64.70;;;;;;5054002;28;20044;-73
2024/02/21 06:32:11;;;;;;;5.50;3.10;;;9.80;64.60;;;;;;5054387;28;20045;-74
2024/02/21 06:34:37;;;;;;;9.13;3.38;;;9.80;64.50;;;;;;5054335;28;20029;-73
2024/02/21 06:37:03;;;;;;;6.68;3.03;;;9.80;64.60;;;;;;5054138;28;20033;-73
2024/02/21 06:39:30;;;;;;;6.28;3.33;;;9.90;64.30;;;;;;5054582;28;20024;-73
2024/02/21 06:41:55;;;;;;;8.18;3.15;;;9.90;64.30;;;;;;5054309;28;20032;-73
2024/02/21 06:44:21;;;;;;;6.30;3.70;;;10.00;63.20;;;;;;5054065;28;20021;-73
2024/02/21 06:46:47;;;;;;;9.07;3.63;;;10.00;63.20;;;;;;5054132;28;20036;-74
2024/02/21 06:49:15;;;;;;;12.45;3.88;;;10.10;63.00;;;;;;5054827;28;20017;-73
2024/02/21 06:51:42;;;;;;;7.50;3.47;;;10.10;62.90;;;;;;5054558;28;20468;-74
2024/02/21 06:54:09;;;;;;;5.50;3.55;;;10.00;62.80;;;;;;5054042;28;20021;-73
2024/02/21 06:56:35;;;;;;;7.72;3.88;;;10.20;63.00;;;;;;5054157;28;20112;-73
2024/02/21 06:59:01;;;;;;;7.82;3.30;;;11.00;62.20;;;;;;5053689;28;20025;-74
2024/02/21 07:01:27;;;;;;;7.85;3.65;;;12.20;59.70;;;;;;5054198;28;20021;-73
2024/02/21 07:03:53;;;;;;;5.90;3.22;;;13.40;58.00;;;;;;5054037;28;20535;-74
2024/02/21 07:06:18;;;;;;;8.43;3.15;;;14.40;56.50;;;;;;5054172;28;20025;-73
2024/02/21 07:08:44;;;;;;;6.75;3.33;;;15.30;54.70;;;;;;5053731;28;20031;-74
2024/02/21 07:11:10;;;;;;;6.47;3.28;;;15.90;53.20;;;;;;5052532;28;20039;-73
2024/02/21 07:13:36;;;;;;;6.93;3.42;;;16.30;52.40;;;;;;5053721;28;20028;-73
2024/02/21 07:16:02;;;;;;;9.68;3.22;;;16.80;51.80;;;;;;5054025;28;20105;-74
2024/02/21 07:18:27;;;;;;;5.85;2.97;;;17.40;50.60;;;;;;5053739;28;20499;-73
2024/02/21 07:20:53;;;;;;;5.75;3.35;;;17.90;49.40;;;;;;5053994;28;20056;-74
2024/02/21 07:23:19;;;;;;;8.02;3.45;;;18.40;48.70;;;;;;5054117;28;20112;-73
2024/02/21 07:25:45;;;;;;;6.78;3.20;;;18.10;47.90;;;;;;5053354;28;20495;-73
2024/02/21 07:28:10;;;;;;;5.70;3.10;;;18.10;48.20;;;;;;5053182;28;20032;-74
2024/02/21 07:30:36;;;;;;;5.63;3.20;;;18.30;47.80;;;;;;5053270;28;20052;-75
2024/02/21 07:33:02;;;;;;;6.55;3.40;;;18.50;47.70;;;;;;5053232;28;20025;-75
2024/02/21 07:35:28;;;;;;;8.98;3.70;;;19.10;47.20;;;;;;5053420;28;20096;-75
2024/02/21 07:37:53;;;;;;;8.00;3.47;;;19.20;46.80;;;;;;5052968;28;20041;-68
2024/02/21 07:40:19;;;;;;;7.93;3.85;;;19.30;46.30;;;;;;5052813;28;20028;-75
2024/02/21 07:42:45;;;;;;;8.73;3.75;;;19.50;45.90;;;;;;5052447;28;20029;-75
2024/02/21 07:45:10;;;;;;;7.97;3.47;;;20.10;45.40;;;;;;5052908;28;20021;-74
2024/02/21 07:47:37;;;;;;;9.85;3.78;;;19.70;44.60;;;;;;5052674;28;20021;-73
2024/02/21 07:50:04;;;;;;;6.80;3.55;;;18.30;45.70;;;;;;5052609;28;20025;-74
2024/02/21 07:52:30;;;;;;;8.73;3.42;;;17.00;47.30;;;;;;5052932;28;20390;-74
2024/02/21 07:54:55;;;;;;;6.28;3.20;;;16.00;47.80;;;;;;5052672;28;20104;-74
2024/02/21 07:57:21;;;;;;;5.97;3.55;;;15.20;49.90;;;;;;5052491;28;20071;-74
2024/02/21 07:59:48;;;;;;;6.70;3.25;;;14.70;51.30;;;;;;5052941;28;20056;-74
2024/02/21 08:02:14;;;;;;;10.32;3.97;;;14.10;51.90;;;;;;5052668;28;20068;-74
2024/02/21 08:04:40;;;;;;;6.82;3.67;;;13.80;53.00;;;;;;5052707;28;20025;-74
2024/02/21 08:07:05;;;;;;;7.50;3.83;;;13.50;53.50;;;;;;5052710;28;20025;-76
2024/02/21 08:09:31;;;;;;;11.70;7.47;;;13.30;53.80;;;;;;5052623;28;20476;-75
2024/02/21 08:11:57;;;;;;;12.98;8.32;;;13.20;54.00;;;;;;5052372;28;20021;-74
2024/02/21 08:14:24;;;;;;;10.45;5.65;;;13.10;54.10;;;;;;5052293;28;20477;-74
2024/02/21 08:16:51;;;;;;;9.73;5.13;;;13.00;54.20;;;;;;5052028;28;20044;-74
2024/02/21 08:19:17;;;;;;;11.63;4.53;;;12.90;54.50;;;;;;5052013;28;20032;-74
2024/02/21 08:21:43;;;;;;;13.60;4.93;;;12.80;54.70;;;;;;5053370;28;20366;-74
2024/02/21 08:24:10;;;;;;;7.65;5.28;;;12.80;54.90;;;;;;5050675;28;20021;-75
2024/02/21 08:26:44;;;;;;;11.93;8.48;;;12.70;55.20;;;;;;5052072;28;20488;-73
2024/02/21 08:29:11;;;;;;;16.38;9.25;;;12.70;55.40;;;;;;5052027;28;20009;-72
2024/02/21 08:31:37;;;;;;;21.58;15.63;;;12.70;55.60;;;;;;5052038;28;20060;-75
2024/02/21 08:34:03;;;;;;;17.83;12.20;;;12.70;55.40;;;;;;5051933;28;20345;-74
2024/02/21 08:36:36;;;;;;;19.85;13.35;;;12.60;55.50;;;;;;5052090;28;20112;-74
2024/02/21 08:39:05;;;;;;;19.75;14.00;;;12.60;55.60;;;;;;5052192;28;20039;-75
2024/02/21 08:41:32;;;;;;;11.65;6.88;;;12.60;55.60;;;;;;5052351;28;20135;-73
2024/02/21 08:43:58;;;;;;;15.13;9.50;;;12.70;55.70;;;;;;5051992;28;20033;-74
2024/02/21 08:46:24;;;;;;;13.77;8.85;;;12.60;55.40;;;;;;5052057;28;20538;-74
2024/02/21 08:48:53;;;;;;;12.82;5.75;;;12.70;55.70;;;;;;5052201;28;20017;-74
2024/02/21 08:51:20;;;;;;;7.53;4.53;;;12.70;55.30;;;;;;5052345;28;20036;-73
2024/02/21 08:53:46;;;;;;;6.85;3.92;;;12.60;55.50;;;;;;5054838;28;20025;-75
2024/02/21 08:56:12;;;;;;;6.28;3.60;;;12.70;55.40;;;;;;5056214;28;20377;-74
2024/02/21 08:58:39;;;;;;;7.25;4.15;;;12.70;55.40;;;;;;5056266;28;20086;-74
2024/02/21 09:01:11;;;;;;;6.15;2.83;;;12.70;55.60;;;;;;5056110;28;20033;-74
2024/02/21 09:03:37;;;;;;;5.70;3.38;;;12.70;55.50;;;;;;5056492;28;20029;-75
2024/02/21 09:06:05;;;;;;;7.25;3.60;;;12.80;55.30;;;;;;5057354;28;20032;-74
2024/02/21 09:08:31;;;;;;;6.40;3.05;;;12.80;56.00;;;;;;5056098;28;20547;-74
2024/02/21 09:10:56;;;;;;;6.35;3.53;;;12.80;55.30;;;;;;5056020;28;20056;-74
2024/02/21 09:13:23;;;;;;;8.80;3.58;;;12.90;55.60;;;;;;5055972;28;20013;-74
2024/02/21 09:15:49;;;;;;;8.45;3.35;;;12.90;55.70;;;;;;5055631;28;20389;-75
2024/02/21 09:18:16;;;;;;;8.52;3.85;;;13.00;55.70;;;;;;5055573;28;20130;-75
2024/02/21 09:20:42;;;;;;;10.27;3.20;;;13.10;55.70;;;;;;5055461;28;20032;-73
2024/02/21 09:23:08;;;;;;;4.85;2.90;;;13.20;55.50;;;;;;5055148;28;20013;-73
2024/02/21 09:25:34;;;;;;;7.50;3.55;;;13.20;55.20;;;;;;5055486;28;20396;-73
2024/02/21 09:28:02;;;;;;;7.93;3.30;;;13.30;55.40;;;;;;5055668;28;20071;-73
2024/02/21 09:30:28;;;;;;;5.50;2.85;;;13.40;55.30;;;;;;5055189;28;20080;-74
2024/02/21 09:32:54;;;;;;;9.32;3.65;;;13.40;54.90;;;;;;5055710;28;20065;-74
2024/02/21 09:35:22;;;;;;;8.88;3.30;;;13.50;55.10;;;;;;5055034;28;20025;-73
2024/02/21 09:37:48;;;;;;;5.75;2.80;;;13.50;54.80;;;;;;5055123;28;20029;-74
2024/02/21 09:40:17;;;;;;;6.68;2.75;;;13.60;54.60;;;;;;5055153;28;20033;-73
2024/02/21 09:42:43;;;;;;;5.25;2.80;;;13.70;54.30;;;;;;5055375;28;20481;-74
2024/02/21 09:45:22;;;;;;;9.10;3.03;;;13.80;54.40;;;;;;5055303;28;20027;-75
2024/02/21 09:48:25;;;;;;;6.82;2.78;;;13.90;54.40;;;;;;5054952;28;20025;-74
2024/02/21 09:50:53;;;;;;;5.40;2.70;;;13.90;54.10;;;;;;5054959;28;20392;-75
2024/02/21 09:53:19;;;;;;;6.57;2.92;;;14.00;53.50;;;;;;5055262;28;20025;-74
2024/02/21 09:55:46;;;;;;;6.28;2.92;;;14.00;52.90;;;;;;5055328;28;20074;-74
2024/02/21 09:58:12;;;;;;;5.88;2.95;;;14.10;52.90;;;;;;5054702;28;20079;-74
2024/02/21 10:00:38;;;;;;;5.93;2.65;;;14.20;52.60;;;;;;5053777;28;20021;-75
2024/02/21 10:03:10;;;;;;;5.22;2.63;;;14.20;52.30;;;;;;5053903;28;20094;-74
2024/02/21 10:05:36;;;;;;;4.53;2.33;;;14.30;52.50;;;;;;5054315;28;20055;-74
2024/02/21 10:08:03;;;;;;;5.78;2.38;;;14.40;52.50;;;;;;5055144;28;20036;-75
2024/02/21 10:10:29;;;;;;;9.45;2.95;;;14.50;52.20;;;;;;5054759;28;20021;-74
2024/02/21 10:12:57;;;;;;;8.27;2.70;;;14.60;52.00;;;;;;5053407;28;20036;-75
2024/02/21 10:15:24;;;;;;;4.05;2.15;;;14.70;52.00;;;;;;5055012;28;20021;-74
2024/02/21 10:18:03;;;;;;;5.18;2.35;;;14.80;51.10;;;;;;5054426;28;20599;-74
2024/02/21 10:20:29;;;;;;;5.70;2.75;;;14.90;50.70;;;;;;5054409;28;20025;-74
2024/02/21 10:23:08;;;;;;;6.30;2.80;;;15.00;50.70;;;;;;5054201;28;20029;-75
2024/02/21 10:25:35;;;;;;;7.68;2.88;;;15.10;50.60;;;;;;5054383;28;20465;-74
2024/02/21 10:28:04;;;;;;;6.43;2.65;;;15.20;49.80;;;;;;5054258;28;20025;-75
2024/02/21 10:30:30;;;;;;;5.13;2.72;;;15.20;49.50;;;;;;5054117;28;20049;-74
2024/02/21 10:32:56;;;;;;;8.80;2.97;;;15.30;49.40;;;;;;5054537;28;20094;-75
2024/02/21 10:35:28;;;;;;;5.88;3.25;;;15.40;49.30;;;;;;5054346;28;20029;-74
2024/02/21 10:37:55;;;;;;;12.93;3.55;;;15.50;48.80;;;;;;5054304;28;20123;-74
2024/02/21 10:40:23;;;;;;;11.57;3.40;;;15.60;49.00;;;;;;5054426;28;20033;-73
2024/02/21 10:42:55;;;;;;;11.80;3.33;;;15.70;48.80;;;;;;5054243;28;20125;-74
2024/02/21 10:45:24;;;;;;;8.45;3.50;;;15.80;48.90;;;;;;5054271;28;20021;-73
2024/02/21 10:47:55;;;;;;;9.57;2.97;;;16.00;48.70;;;;;;5053900;28;20388;-74
2024/02/21 10:50:24;;;;;;;7.15;2.97;;;16.10;48.50;;;;;;5053716;28;20025;-75
2024/02/21 10:53:09;;;;;;;5.63;2.60;;;16.10;48.60;;;;;;5052417;28;20481;-74
2024/02/21 10:55:41;;;;;;;9.05;2.47;;;16.20;48.20;;;;;;5053693;28;20495;-74
2024/02/21 10:58:09;;;;;;;6.57;2.65;;;16.30;47.80;;;;;;5053859;28;20452;-74
2024/02/21 11:00:36;;;;;;;7.78;3.03;;;16.40;48.00;;;;;;5052234;28;20345;-74
2024/02/21 11:03:03;;;;;;;8.75;2.92;;;16.50;47.70;;;;;;5053523;28;20029;-74
2024/02/21 11:05:29;;;;;;;5.15;2.50;;;16.60;48.00;;;;;;5053920;28;20461;-74
2024/02/21 11:07:55;;;;;;;6.32;2.42;;;16.70;48.10;;;;;;5054124;28;20373;-75
2024/02/21 11:10:25;;;;;;;5.38;2.05;;;16.80;47.70;;;;;;5053953;28;20025;-75
2024/02/21 11:13:09;;;;;;;9.70;2.75;;;16.90;47.40;;;;;;5053537;28;20035;-74
2024/02/21 11:15:35;;;;;;;3.92;1.90;;;17.00;47.40;;;;;;5053507;28;20032;-74
2024/02/21 11:18:01;;;;;;;5.82;2.00;;;17.10;46.90;;;;;;5052751;28;20032;-74
2024/02/21 11:20:35;;;;;;;4.45;1.90;;;17.10;46.50;;;;;;5053693;28;20021;-75
2024/02/21 11:23:01;;;;;;;4.38;2.20;;;17.20;46.30;;;;;;5053445;28;20029;-74
2024/02/21 11:25:28;;;;;;;4.38;2.13;;;17.20;45.90;;;;;;5053756;28;20425;-73
2024/02/21 11:28:01;;;;;;;4.65;2.20;;;17.30;45.70;;;;;;5054020;28;20131;-75
2024/02/21 11:30:30;;;;;;;6.25;2.45;;;17.30;45.40;;;;;;5053538;28;20076;-75
2024/02/21 11:33:01;;;;;;;4.10;1.88;;;17.40;45.70;;;;;;5053730;28;20025;-75
2024/02/21 11:35:32;;;;;;;4.70;2.10;;;17.50;45.30;;;;;;5053215;28;20465;-75
2024/02/21 11:38:14;;;;;;;11.57;2.75;;;17.60;45.60;;;;;;5053322;28;20025;-75
2024/02/21 11:40:41;;;;;;;7.88;2.22;;;17.70;45.50;;;;;;5053353;28;20019;-75
2024/02/21 11:43:07;;;;;;;7.00;2.20;;;17.80;45.20;;;;;;5053322;28;20048;-74
2024/02/21 11:45:33;;;;;;;6.25;1.83;;;17.90;44.80;;;;;;5053274;28;20025;-75
2024/02/21 11:48:03;;;;;;;5.68;1.80;;;18.00;44.50;;;;;;5052998;28;20086;-75
2024/02/21 11:50:30;;;;;;;6.53;2.40;;;18.00;44.00;;;;;;5053381;28;20033;-75
2024/02/21 11:52:57;;;;;;;6.63;1.80;;;18.10;44.20;;;;;;5053262;28;20017;-76
2024/02/21 11:55:23;;;;;;;3.92;2.10;;;18.10;43.70;;;;;;5053647;28;20358;-74
2024/02/21 11:57:49;;;;;;;4.20;1.80;;;18.10;43.60;;;;;;5052940;28;20135;-75
2024/02/21 12:00:16;;;;;;;6.75;2.38;;;18.10;43.40;;;;;;5052755;28;20017;-73
2024/02/21 12:02:45;;;;;;;4.00;1.70;;;18.20;43.20;;;;;;5052901;28;20029;-74
2024/02/21 12:05:12;;;;;;;7.47;2.30;;;18.30;42.80;;;;;;5052824;28;20488;-74
2024/02/21 12:07:41;;;;;;;3.53;1.73;;;18.40;43.40;;;;;;5052793;28;20029;-73
2024/02/21 12:10:15;;;;;;;4.18;1.50;;;18.40;42.40;;;;;;5052963;28;20374;-73
2024/02/21 12:12:41;;;;;;;2.88;1.30;;;18.40;42.30;;;;;;5053206;28;20064;-76
2024/02/21 12:15:08;;;;;;;4.22;1.50;;;18.50;42.40;;;;;;5052879;28;20029;-75
2024/02/21 12:17:35;;;;;;;8.23;2.28;;;18.60;42.70;;;;;;5052676;28;20040;-74
2024/02/21 12:20:03;;;;;;;4.93;1.75;;;18.70;42.60;;;;;;5053217;28;20111;-77
2024/02/21 12:22:32;;;;;;;5.68;1.95;;;18.80;42.60;;;;;;5052896;28;20036;-74
2024/02/21 12:24:58;;;;;;;6.13;1.60;;;18.90;42.10;;;;;;5052578;28;20493;-74
2024/02/21 12:27:25;;;;;;;3.42;1.60;;;18.90;41.90;;;;;;5052511;28;20029;-75
2024/02/21 12:29:50;;;;;;;3.10;1.52;;;19.00;41.60;;;;;;5052757;28;20488;-75
2024/02/21 12:32:16;;;;;;;2.88;1.40;;;19.00;41.10;;;;;;5052511;28;20088;-74
2024/02/21 12:34:42;;;;;;;2.42;1.40;;;19.00;40.80;;;;;;5052661;28;20044;-76
2024/02/21 12:37:07;;;;;;;3.35;1.55;;;19.10;41.10;;;;;;5052280;28;20036;-74
2024/02/21 12:39:34;;;;;;;2.58;1.35;;;19.10;40.20;;;;;;5052465;28;20052;-75
2024/02/21 12:42:00;;;;;;;3.22;1.50;;;19.20;41.00;;;;;;5052317;28;20017;-74
2024/02/21 12:44:26;;;;;;;2.45;1.27;;;19.30;40.80;;;;;;5052214;28;20651;-74